Time;durP1;ratioP1;P1;durP2;ratioP2;P2;SDS_P1;SDS_P2;PMS_P1;PMS_P2;Temp;Humidity;BMP_temperature;BMP_pressure;BME280_temperature;BME280_humidity;BME280_pressure;Samples;Min_cycle;Max_cycle;Signal;HPM_P1;HPM_P2
2024/02/04 00:01:15;;;;;;;8.93;4.50;;;;;;;5.72;52.91;94252.47;5026501;28;20071;-71
2024/02/04 00:03:41;;;;;;;6.35;4.13;;;;;;;5.76;52.44;94256.94;5033414;28;20559;-70
2024/02/04 00:06:07;;;;;;;6.85;5.18;;;;;;;5.72;52.81;94258.53;5030181;28;20167;-70
2024/02/04 00:08:32;;;;;;;7.47;4.28;;;;;;;5.81;52.62;94256.91;5023757;28;20068;-70
2024/02/04 00:10:57;;;;;;;8.40;4.70;;;;;;;5.83;52.46;94252.13;5013054;28;20052;-70
2024/02/04 00:13:23;;;;;;;4.90;4.35;;;;;;;5.80;52.65;94250.03;5033719;28;20421;-70
2024/02/04 00:15:48;;;;;;;9.30;5.53;;;;;;;5.79;52.79;94248.44;5029821;28;20093;-70
2024/02/04 00:18:14;;;;;;;7.25;4.80;;;;;;;5.77;52.55;94245.31;5032230;28;20049;-70
2024/02/04 00:20:39;;;;;;;10.80;5.40;;;;;;;5.75;52.87;94250.06;5018935;28;20037;-70
2024/02/04 00:23:05;;;;;;;6.47;4.72;;;;;;;5.55;52.96;94226.41;5012524;28;20046;-70
2024/02/04 00:25:30;;;;;;;6.70;4.68;;;;;;;5.71;52.66;94232.41;5029764;28;20025;-70
2024/02/04 00:27:56;;;;;;;6.78;4.75;;;;;;;5.70;52.80;94255.34;5029557;28;20823;-70
2024/02/04 00:30:21;;;;;;;4.88;4.22;;;;;;;5.73;52.87;94244.25;5030469;28;20032;-70
2024/02/04 00:32:47;;;;;;;7.40;4.78;;;;;;;5.85;52.69;94244.72;5033130;28;20037;-70
2024/02/04 00:35:12;;;;;;;6.35;4.45;;;;;;;5.85;52.97;94239.44;5027317;28;20074;-71
2024/02/04 00:37:38;;;;;;;4.85;4.43;;;;;;;5.86;52.95;94237.59;5029986;28;20045;-71
2024/02/04 00:40:04;;;;;;;5.05;4.15;;;;;;;5.82;53.79;94239.97;5028950;28;20053;-70
2024/02/04 00:42:29;;;;;;;9.30;5.05;;;;;;;5.85;53.80;94241.28;5032519;28;20099;-70
2024/02/04 00:44:55;;;;;;;10.20;4.97;;;;;;;5.54;54.23;94214.25;5030732;28;20059;-70
2024/02/04 00:47:20;;;;;;;6.55;4.80;;;;;;;5.59;54.40;94211.59;5032872;28;20072;-71
2024/02/04 00:49:45;;;;;;;5.25;4.10;;;;;;;5.84;54.10;94222.03;5031750;28;20505;-70
2024/02/04 00:52:11;;;;;;;5.35;4.55;;;;;;;5.70;54.68;94228.97;5030522;28;20402;-70
2024/02/04 00:54:36;;;;;;;6.45;3.97;;;;;;;5.70;54.92;94223.69;5032120;28;20587;-70
2024/02/04 00:57:02;;;;;;;7.30;4.60;;;;;;;5.72;54.95;94231.34;5027316;28;20033;-70
2024/02/04 00:59:27;;;;;;;6.15;4.40;;;;;;;5.71;54.94;94206.81;5030494;28;20040;-70
2024/02/04 01:01:53;;;;;;;6.68;4.28;;;;;;;5.77;55.14;94229.47;5029363;28;20051;-71
2024/02/04 01:04:18;;;;;;;4.95;3.70;;;;;;;5.73;55.63;94223.13;5002780;28;20028;-70
2024/02/04 01:06:44;;;;;;;3.92;3.55;;;;;;;5.82;55.78;94226.78;5028285;28;20033;-70
2024/02/04 01:09:09;;;;;;;6.00;4.15;;;;;;;5.86;55.55;94233.13;5017940;28;20111;-71
2024/02/04 01:11:35;;;;;;;4.95;3.67;;;;;;;5.86;55.63;94238.41;5018952;28;20131;-70
2024/02/04 01:14:00;;;;;;;5.93;4.00;;;;;;;5.80;55.94;94231.56;5026558;28;20029;-70
2024/02/04 01:16:26;;;;;;;4.45;3.50;;;;;;;5.92;55.95;94234.63;5030982;28;20053;-70
2024/02/04 01:18:52;;;;;;;12.02;4.30;;;;;;;5.76;56.44;94237.66;5031069;28;20055;-70
2024/02/04 01:21:17;;;;;;;5.57;3.80;;;;;;;5.66;57.14;94232.44;5030906;28;20036;-69
2024/02/04 01:23:43;;;;;;;3.97;3.35;;;;;;;5.77;56.57;94218.91;5020589;28;20116;-70
2024/02/04 01:26:08;;;;;;;5.93;3.72;;;;;;;5.76;56.67;94216.53;5010386;28;20496;-70
2024/02/04 01:28:34;;;;;;;4.40;3.42;;;;;;;5.71;57.18;94225.28;5029429;28;20024;-72
2024/02/04 01:30:59;;;;;;;4.32;3.42;;;;;;;5.83;56.67;94206.44;5025381;28;20343;-70
2024/02/04 01:33:25;;;;;;;4.50;3.63;;;;;;;5.84;56.96;94232.59;5033086;28;20045;-70
2024/02/04 01:35:51;;;;;;;3.83;3.03;;;;;;;5.86;56.78;94217.28;5030521;28;20139;-70
2024/02/04 01:38:17;;;;;;;3.65;3.20;;;;;;;5.99;56.57;94211.38;5031367;28;20079;-70
2024/02/04 01:40:42;;;;;;;4.28;2.97;;;;;;;6.02;56.20;94209.25;5033246;28;20128;-70
2024/02/04 01:43:08;;;;;;;6.20;2.75;;;;;;;6.11;55.93;94202.31;5011659;28;20037;-70
2024/02/04 01:45:33;;;;;;;3.38;3.08;;;;;;;6.02;56.17;94210.81;5027362;28;20041;-70
2024/02/04 01:47:59;;;;;;;4.00;2.70;;;;;;;5.85;56.29;94191.94;5035256;28;20049;-70
2024/02/04 01:50:24;;;;;;;3.97;3.17;;;;;;;5.98;55.93;94196.59;5032614;28;20049;-70
2024/02/04 01:52:51;;;;;;;3.78;3.08;;;;;;;6.00;55.98;94191.84;5034169;28;20151;-70
2024/02/04 01:55:18;;;;;;;4.25;2.92;;;;;;;6.15;55.64;94196.22;5030677;28;20033;-70
2024/02/04 01:57:44;;;;;;;4.93;3.45;;;;;;;6.10;55.76;94190.97;5035871;28;20037;-70
2024/02/04 02:00:10;;;;;;;3.35;3.05;;;;;;;6.16;55.82;94186.47;5021525;28;20042;-70
2024/02/04 02:02:39;;;;;;;4.18;3.15;;;;;;;6.04;56.12;94196.56;5015564;28;20107;-70
2024/02/04 02:05:05;;;;;;;4.38;3.10;;;;;;;6.02;56.31;94196.06;5014427;28;20037;-70
2024/02/04 02:07:31;;;;;;;5.25;3.72;;;;;;;6.09;55.78;94199.94;5034994;28;20413;-71
2024/02/04 02:09:57;;;;;;;3.83;3.33;;;;;;;5.84;56.73;94200.13;5033520;28;20533;-71
2024/02/04 02:12:29;;;;;;;5.80;3.22;;;;;;;5.93;56.53;94196.63;5036411;28;20037;-70
2024/02/04 02:15:04;;;;;;;4.50;3.35;;;;;;;5.84;56.69;94190.34;5035471;28;20064;-70
2024/02/04 02:17:49;;;;;;;4.03;3.53;;;;;;;5.98;56.05;94196.59;5030488;28;20056;-70
2024/02/04 02:20:23;;;;;;;6.55;3.33;;;;;;;6.04;56.04;94197.34;5034188;28;20045;-71
2024/02/04 02:23:01;;;;;;;6.85;3.35;;;;;;;6.26;55.28;94186.41;5035028;28;20020;-70
2024/02/04 02:25:27;;;;;;;3.78;2.75;;;;;;;6.36;54.80;94191.59;5033565;28;20068;-70
2024/02/04 02:27:52;;;;;;;3.58;2.92;;;;;;;6.33;54.52;94173.66;5030186;28;20033;-71
2024/02/04 02:30:18;;;;;;;4.38;2.70;;;;;;;6.32;54.76;94187.91;5022974;28;20041;-70
2024/02/04 02:32:45;;;;;;;7.28;2.83;;;;;;;6.29;54.51;94191.91;5017153;28;20445;-71
2024/02/04 02:35:15;;;;;;;3.25;2.95;;;;;;;6.13;54.95;94179.06;5034661;28;20051;-70
2024/02/04 02:37:47;;;;;;;5.03;3.22;;;;;;;6.09;54.94;94173.53;5032943;28;20094;-70
2024/02/04 02:40:26;;;;;;;3.88;2.53;;;;;;;6.36;54.10;94194.25;5007481;28;20070;-71
2024/02/04 02:42:54;;;;;;;7.00;3.50;;;;;;;6.02;55.21;94167.03;5006419;28;20113;-70
2024/02/04 02:45:24;;;;;;;4.35;3.15;;;;;;;6.09;55.61;94172.75;5026809;28;20033;-70
2024/02/04 02:47:51;;;;;;;3.42;2.75;;;;;;;6.05;55.37;94179.66;5030804;28;20045;-70
2024/02/04 02:50:16;;;;;;;3.20;2.90;;;;;;;6.12;55.08;94172.19;5025960;28;20045;-70
2024/02/04 02:52:42;;;;;;;4.35;3.95;;;;;;;6.05;54.94;94153.25;5014916;28;20057;-70
2024/02/04 02:55:08;;;;;;;4.88;3.22;;;;;;;6.20;55.06;94174.28;5011797;28;20057;-70
2024/02/04 02:57:33;;;;;;;3.97;2.75;;;;;;;6.13;55.21;94171.13;5022648;28;20044;-71
2024/02/04 02:59:59;;;;;;;3.55;3.08;;;;;;;6.10;55.22;94175.13;5034158;28;20032;-71
2024/02/04 03:02:24;;;;;;;3.17;2.88;;;;;;;6.12;54.77;94161.63;5025151;28;20048;-71
2024/02/04 03:04:49;;;;;;;3.65;2.17;;;;;;;6.21;54.95;94165.31;5031664;28;20053;-70
2024/02/04 03:07:15;;;;;;;2.53;2.33;;;;;;;6.27;54.70;94169.47;5035662;28;20409;-70
2024/02/04 03:09:40;;;;;;;2.70;2.10;;;;;;;6.25;54.80;94163.69;5034733;28;20044;-70
2024/02/04 03:12:06;;;;;;;2.30;2.10;;;;;;;6.35;54.81;94171.53;5031868;28;20065;-70
2024/02/04 03:14:31;;;;;;;2.63;2.42;;;;;;;6.43;54.56;94150.56;5034646;28;20077;-71
2024/02/04 03:16:57;;;;;;;2.50;2.10;;;;;;;6.53;54.74;94152.34;5031595;28;20029;-70
2024/02/04 03:19:22;;;;;;;2.47;1.98;;;;;;;6.29;55.23;94162.06;5034972;28;20044;-70
2024/02/04 03:21:48;;;;;;;3.83;2.30;;;;;;;6.34;55.38;94149.59;5028156;28;20064;-71
2024/02/04 03:24:13;;;;;;;3.45;2.20;;;;;;;6.40;55.21;94159.06;5032732;28;20136;-71
2024/02/04 03:26:39;;;;;;;2.65;2.22;;;;;;;6.56;54.91;94146.47;5032173;28;20754;-71
2024/02/04 03:29:04;;;;;;;3.40;1.88;;;;;;;6.53;55.05;94140.97;5034927;28;20067;-72
2024/02/04 03:31:30;;;;;;;3.20;2.58;;;;;;;6.57;55.04;94166.56;5033092;28;20060;-71
2024/02/04 03:33:56;;;;;;;2.85;2.08;;;;;;;6.49;55.53;94150.53;5032885;28;20059;-71
2024/02/04 03:36:23;;;;;;;2.70;2.08;;;;;;;6.65;54.95;94160.66;5031296;28;20049;-71
2024/02/04 03:38:50;;;;;;;3.38;2.00;;;;;;;6.55;55.34;94149.41;5032942;28;20044;-71
2024/02/04 03:41:15;;;;;;;2.63;1.70;;;;;;;6.18;55.89;94113.81;5030909;28;20048;-71
2024/02/04 03:43:41;;;;;;;3.20;1.88;;;;;;;6.37;55.84;94133.19;5034236;28;20024;-70
2024/02/04 03:46:06;;;;;;;2.00;1.60;;;;;;;6.51;55.94;94128.03;5029828;28;20482;-71
2024/02/04 03:48:33;;;;;;;1.67;1.33;;;;;;;6.65;55.64;94091.94;5035938;28;20137;-71
2024/02/04 03:50:59;;;;;;;3.05;2.08;;;;;;;6.76;56.20;94122.47;5019882;28;20041;-71
2024/02/04 03:53:25;;;;;;;4.10;2.22;;;;;;;6.82;54.62;94124.00;5019297;28;20068;-68
2024/02/04 03:55:51;;;;;;;2.58;2.13;;;;;;;6.82;53.97;94133.78;5026475;28;20056;-71
2024/02/04 03:58:19;;;;;;;3.53;2.10;;;;;;;6.80;54.47;94126.13;5035953;28;20037;-71
2024/02/04 04:00:45;;;;;;;4.38;2.35;;;;;;;6.45;55.14;94112.53;5030980;28;20585;-70
2024/02/04 04:03:10;;;;;;;3.22;2.10;;;;;;;6.50;54.74;94115.91;5029452;28;20036;-70
2024/02/04 04:05:36;;;;;;;2.22;1.70;;;;;;;6.58;55.47;94147.00;5034416;28;20438;-70
2024/02/04 04:08:01;;;;;;;2.35;2.03;;;;;;;6.61;55.59;94153.56;5031434;28;20116;-71
2024/02/04 04:10:27;;;;;;;2.97;1.85;;;;;;;6.71;55.83;94156.91;5031873;28;20478;-71
2024/02/04 04:12:52;;;;;;;2.33;1.70;;;;;;;6.71;56.30;94156.09;5029704;28;20517;-71
2024/02/04 04:15:18;;;;;;;3.35;2.58;;;;;;;6.60;56.66;94131.66;5019564;28;20522;-70
2024/02/04 04:17:43;;;;;;;2.60;2.10;;;;;;;6.53;57.03;94125.13;5010422;28;20049;-70
2024/02/04 04:20:09;;;;;;;4.18;2.63;;;;;;;6.54;57.01;94122.19;5015213;28;20029;-70
2024/02/04 04:22:34;;;;;;;2.85;2.58;;;;;;;6.55;57.22;94120.34;5034056;28;20754;-70
2024/02/04 04:25:00;;;;;;;3.45;3.10;;;;;;;6.47;57.18;94127.00;5033677;28;20044;-70
2024/02/04 04:27:25;;;;;;;5.60;3.35;;;;;;;6.45;57.16;94096.66;5017492;28;20614;-70
2024/02/04 04:29:51;;;;;;;4.38;3.67;;;;;;;6.43;57.58;94110.16;5006566;28;20041;-70
2024/02/04 04:32:16;;;;;;;3.70;2.50;;;;;;;6.54;58.00;94114.28;5013624;28;20049;-70
2024/02/04 04:34:42;;;;;;;3.47;1.80;;;;;;;6.46;58.92;94138.66;5033635;28;20574;-70
2024/02/04 04:37:07;;;;;;;4.65;3.22;;;;;;;6.45;58.83;94145.03;5033919;28;20087;-71
2024/02/04 04:39:32;;;;;;;3.03;2.55;;;;;;;6.54;58.89;94137.25;5029971;28;20095;-70
2024/02/04 04:41:58;;;;;;;4.15;2.30;;;;;;;6.47;59.31;94134.94;5031636;28;20048;-70
2024/02/04 04:44:23;;;;;;;2.50;2.30;;;;;;;6.33;59.18;94139.31;5031258;28;20494;-70
2024/02/04 04:46:49;;;;;;;4.40;3.70;;;;;;;6.53;58.65;94146.25;5032769;28;20099;-70
2024/02/04 04:49:14;;;;;;;4.85;3.72;;;;;;;6.54;58.23;94143.34;5030036;28;20048;-70
2024/02/04 04:51:46;;;;;;;4.28;3.50;;;;;;;6.50;57.79;94144.97;5014440;28;20032;-70
2024/02/04 04:54:11;;;;;;;4.28;2.88;;;;;;;6.47;58.12;94142.06;5021736;28;20528;-71
2024/02/04 04:56:40;;;;;;;4.43;2.97;;;;;;;6.45;57.56;94131.03;5033377;28;20529;-70
2024/02/04 04:59:09;;;;;;;5.68;4.40;;;;;;;6.43;57.44;94131.28;5033764;28;20052;-70
2024/02/04 05:01:34;;;;;;;5.25;4.03;;;;;;;6.52;56.71;94142.03;5029783;28;20091;-71
2024/02/04 05:04:00;;;;;;;4.22;3.13;;;;;;;6.69;56.09;94131.84;5031562;28;20032;-71
2024/02/04 05:06:26;;;;;;;3.47;2.90;;;;;;;6.75;55.46;94130.72;5033289;28;20041;-70
2024/02/04 05:08:52;;;;;;;4.13;3.47;;;;;;;6.68;55.91;94120.47;5031059;28;20438;-71
2024/02/04 05:11:17;;;;;;;7.20;4.95;;;;;;;6.80;55.51;94134.06;5032800;28;20056;-70
2024/02/04 05:13:43;;;;;;;6.93;4.65;;;;;;;6.80;55.24;94128.78;5033917;28;20025;-70
2024/02/04 05:16:08;;;;;;;5.57;3.63;;;;;;;6.63;55.76;94119.72;5031480;28;20111;-71
2024/02/04 05:18:34;;;;;;;5.53;3.80;;;;;;;6.52;55.79;94132.25;5031324;28;20049;-70
2024/02/04 05:21:02;;;;;;;3.88;3.05;;;;;;;6.34;56.01;94098.63;5031550;28;20612;-70
2024/02/04 05:23:27;;;;;;;6.10;3.15;;;;;;;6.64;55.14;94130.03;5033971;28;20037;-70
2024/02/04 05:25:53;;;;;;;6.13;3.67;;;;;;;6.55;55.66;94133.56;5026198;28;20044;-71
2024/02/04 05:28:18;;;;;;;5.18;3.75;;;;;;;6.58;55.33;94149.63;5010944;28;20302;-72
2024/02/04 05:30:44;;;;;;;3.95;2.83;;;;;;;6.59;55.35;94156.50;5009047;28;20227;-70
2024/02/04 05:33:13;;;;;;;4.18;2.88;;;;;;;6.76;54.83;94148.91;5008797;28;20149;-70
2024/02/04 05:35:40;;;;;;;4.32;2.88;;;;;;;6.62;55.02;94145.38;5010834;28;20134;-70
2024/02/04 05:38:05;;;;;;;7.03;4.28;;;;;;;6.70;54.75;94149.28;5013303;28;20056;-71
2024/02/04 05:40:31;;;;;;;10.77;6.20;;;;;;;6.57;54.68;94137.50;5029885;28;20029;-70
2024/02/04 05:42:56;;;;;;;3.92;2.72;;;;;;;6.73;54.32;94146.06;5032991;28;20033;-71
2024/02/04 05:45:22;;;;;;;4.47;3.88;;;;;;;6.75;54.24;94155.25;5015751;28;20034;-71
2024/02/04 05:47:47;;;;;;;3.97;3.15;;;;;;;6.52;54.30;94129.59;5007058;28;20660;-71
2024/02/04 05:50:13;;;;;;;7.78;4.90;;;;;;;6.62;54.38;94148.00;5008607;28;20051;-70
2024/02/04 05:52:39;;;;;;;8.07;5.22;;;;;;;6.65;54.67;94149.31;5034495;28;20028;-70
2024/02/04 05:55:04;;;;;;;6.35;4.38;;;;;;;6.59;55.04;94140.66;5027782;28;20048;-70
2024/02/04 05:57:30;;;;;;;4.32;2.90;;;;;;;6.76;54.56;94143.63;5032984;28;20490;-70
2024/02/04 05:59:55;;;;;;;3.58;3.28;;;;;;;6.77;54.84;94157.63;5030766;28;20138;-70
2024/02/04 06:02:21;;;;;;;4.80;3.35;;;;;;;6.78;54.18;94138.88;5029960;28;20525;-71
2024/02/04 06:04:48;;;;;;;3.38;3.00;;;;;;;6.83;54.22;94153.88;5031944;28;20164;-70
2024/02/04 06:07:13;;;;;;;5.68;3.20;;;;;;;6.78;54.38;94175.88;5032663;28;20033;-70
2024/02/04 06:09:39;;;;;;;3.72;3.28;;;;;;;6.66;54.68;94156.16;5027769;28;20645;-70
2024/02/04 06:12:06;;;;;;;4.50;2.45;;;;;;;6.86;54.06;94175.25;5032513;28;20042;-71
2024/02/04 06:14:33;;;;;;;4.85;3.65;;;;;;;6.80;54.34;94176.38;5024924;28;20065;-70
2024/02/04 06:16:59;;;;;;;4.47;2.88;;;;;;;6.74;54.63;94172.22;5014161;28;20033;-70
2024/02/04 06:19:24;;;;;;;4.13;3.20;;;;;;;6.68;54.47;94175.97;5029202;28;20527;-70
2024/02/04 06:21:50;;;;;;;4.50;3.08;;;;;;;6.78;54.61;94180.38;5031375;28;20037;-70
2024/02/04 06:24:15;;;;;;;3.38;3.08;;;;;;;6.80;54.56;94186.94;5028687;28;20033;-71
2024/02/04 06:26:41;;;;;;;3.35;2.60;;;;;;;6.61;55.04;94195.84;5023638;28;20045;-70
2024/02/04 06:29:07;;;;;;;3.78;2.83;;;;;;;6.71;54.58;94179.91;5011025;28;20115;-71
2024/02/04 06:31:32;;;;;;;4.82;2.85;;;;;;;6.59;55.01;94209.38;5034309;28;20029;-70
2024/02/04 06:33:58;;;;;;;3.78;3.28;;;;;;;6.54;55.05;94212.03;5035088;28;20112;-70
2024/02/04 06:36:23;;;;;;;3.03;2.70;;;;;;;6.54;55.08;94208.63;5032090;28;20069;-70
2024/02/04 06:38:48;;;;;;;2.70;2.50;;;;;;;6.61;55.11;94215.13;5029911;28;20845;-70
2024/02/04 06:41:14;;;;;;;4.95;2.80;;;;;;;6.55;54.80;94213.63;5033352;28;20300;-70
2024/02/04 06:43:39;;;;;;;3.53;2.95;;;;;;;6.48;55.15;94207.88;5031678;28;20612;-71
2024/02/04 06:46:05;;;;;;;4.38;2.42;;;;;;;6.65;54.76;94208.22;5034930;28;20095;-71
2024/02/04 06:48:30;;;;;;;3.63;2.42;;;;;;;6.66;54.89;94215.09;5032678;28;20138;-71
2024/02/04 06:50:56;;;;;;;3.17;2.60;;;;;;;6.66;54.88;94182.59;5034633;28;20037;-70
2024/02/04 06:53:21;;;;;;;2.60;2.22;;;;;;;6.62;54.23;94182.38;5026895;28;20426;-70
2024/02/04 06:55:47;;;;;;;2.75;2.20;;;;;;;6.75;54.16;94192.28;5011827;28;20060;-70
2024/02/04 06:58:12;;;;;;;2.45;2.00;;;;;;;6.80;53.83;94180.84;5032670;28;20375;-70
2024/02/04 07:00:38;;;;;;;3.30;1.80;;;;;;;6.98;52.23;94211.09;5030272;28;20111;-70
2024/02/04 07:03:04;;;;;;;3.58;1.80;;;;;;;6.81;52.47;94199.09;5031055;28;20526;-70
2024/02/04 07:05:31;;;;;;;2.63;2.42;;;;;;;6.77;53.74;94221.09;5033607;28;20033;-70
2024/02/04 07:07:56;;;;;;;2.30;2.08;;;;;;;6.74;52.99;94193.38;5031714;28;20059;-70
2024/02/04 07:10:21;;;;;;;2.95;2.08;;;;;;;6.83;53.15;94215.47;5030516;28;20120;-70
2024/02/04 07:12:47;;;;;;;2.33;2.13;;;;;;;6.99;52.88;94210.03;5035861;28;20413;-71
2024/02/04 07:15:13;;;;;;;3.50;2.38;;;;;;;6.96;53.15;94221.16;5033938;28;20551;-70
2024/02/04 07:17:38;;;;;;;3.65;2.45;;;;;;;6.77;53.25;94218.44;5024333;28;20053;-70
2024/02/04 07:20:05;;;;;;;2.42;1.95;;;;;;;6.94;53.07;94215.38;5005695;28;20022;-70
2024/02/04 07:22:31;;;;;;;3.30;2.35;;;;;;;6.99;53.05;94217.97;5011410;28;20041;-71
2024/02/04 07:24:56;;;;;;;4.07;2.80;;;;;;;6.89;53.28;94210.13;5029960;28;20041;-70
2024/02/04 07:27:22;;;;;;;4.10;2.15;;;;;;;6.74;53.44;94195.22;5033210;28;20502;-69
2024/02/04 07:29:47;;;;;;;2.95;2.38;;;;;;;6.80;53.46;94218.66;5030399;28;20074;-70
2024/02/04 07:32:15;;;;;;;3.53;2.67;;;;;;;7.01;52.94;94205.25;5027585;28;20049;-71
2024/02/04 07:34:41;;;;;;;3.72;2.50;;;;;;;6.98;52.77;94203.16;5008384;28;20124;-71
2024/02/04 07:37:06;;;;;;;2.35;2.03;;;;;;;7.03;52.09;94205.75;5027819;28;20059;-71
2024/02/04 07:39:32;;;;;;;3.53;2.85;;;;;;;6.76;52.56;94167.41;5033323;28;20029;-71
2024/02/04 07:42:00;;;;;;;2.67;1.92;;;;;;;7.05;52.01;94201.75;5030197;28;20438;-70
2024/02/04 07:44:29;;;;;;;3.83;2.25;;;;;;;7.06;51.61;94207.84;5032620;28;20032;-71
2024/02/04 07:46:55;;;;;;;5.68;2.30;;;;;;;7.02;51.53;94207.63;5031014;28;20028;-70
2024/02/04 07:49:20;;;;;;;2.20;1.90;;;;;;;7.29;50.90;94217.63;5034723;28;20064;-71
2024/02/04 07:51:45;;;;;;;2.95;2.42;;;;;;;7.29;50.76;94207.81;5027813;28;20119;-70
2024/02/04 07:54:11;;;;;;;2.90;2.20;;;;;;;7.22;50.46;94201.31;5033224;28;20037;-70
2024/02/04 07:56:36;;;;;;;6.05;2.63;;;;;;;6.94;50.50;94151.91;5030514;28;20554;-71
2024/02/04 07:59:03;;;;;;;2.40;1.60;;;;;;;7.39;49.46;94191.03;5032951;28;20526;-70
2024/02/04 08:01:29;;;;;;;3.10;1.92;;;;;;;7.44;49.47;94204.22;5031161;28;20128;-70
2024/02/04 08:03:55;;;;;;;3.80;2.40;;;;;;;7.37;48.90;94201.13;5027528;28;20063;-70
2024/02/04 08:06:20;;;;;;;1.73;1.30;;;;;;;7.43;48.91;94194.72;5011161;28;20482;-70
2024/02/04 08:08:47;;;;;;;4.15;1.60;;;;;;;7.35;49.24;94194.53;5003245;28;20469;-70
2024/02/04 08:11:16;;;;;;;3.17;1.38;;;;;;;7.33;49.26;94200.13;5007931;28;20041;-71
2024/02/04 08:13:42;;;;;;;2.90;1.80;;;;;;;7.31;48.78;94210.19;5030089;28;20028;-70
2024/02/04 08:16:08;;;;;;;2.65;1.70;;;;;;;7.35;49.26;94215.72;5002119;28;20037;-70
2024/02/04 08:18:33;;;;;;;1.90;1.33;;;;;;;7.39;47.96;94185.75;5025215;28;20049;-70
2024/02/04 08:20:59;;;;;;;2.38;1.75;;;;;;;7.37;48.63;94185.25;5028895;28;20044;-71
2024/02/04 08:23:24;;;;;;;0.88;0.80;;;;;;;7.45;48.29;94194.41;5033417;28;20056;-71
2024/02/04 08:25:50;;;;;;;1.25;1.10;;;;;;;7.49;48.50;94177.69;5028702;28;20036;-71
2024/02/04 08:28:15;;;;;;;13.98;1.50;;;;;;;7.64;47.93;94180.13;5004591;28;20091;-70
2024/02/04 08:30:40;;;;;;;3.75;1.88;;;;;;;7.65;48.17;94178.28;5022904;28;20411;-70
2024/02/04 08:33:06;;;;;;;0.80;0.80;;;;;;;7.76;48.13;94189.56;5034076;28;20067;-71
2024/02/04 08:35:32;;;;;;;3.90;1.13;;;;;;;7.78;47.75;94182.13;5025616;28;20139;-71
2024/02/04 08:37:57;;;;;;;3.10;1.20;;;;;;;7.87;47.90;94183.06;5031065;28;20122;-71
2024/02/04 08:40:23;;;;;;;3.13;1.17;;;;;;;7.80;47.66;94190.56;5030371;28;20041;-71
2024/02/04 08:42:48;;;;;;;1.33;1.10;;;;;;;7.81;47.71;94182.34;5029458;28;20485;-70
2024/02/04 08:45:15;;;;;;;1.00;0.90;;;;;;;7.84;48.26;94179.09;5016474;28;20058;-70
2024/02/04 08:47:40;;;;;;;1.98;1.10;;;;;;;7.87;48.09;94164.50;5005823;28;20482;-71
2024/02/04 08:50:07;;;;;;;1.40;1.00;;;;;;;7.75;48.86;94201.22;5004241;28;20049;-70
2024/02/04 08:52:32;;;;;;;1.38;1.27;;;;;;;7.76;48.35;94195.66;5034433;28;20478;-71
2024/02/04 08:54:59;;;;;;;3.47;1.20;;;;;;;7.68;48.51;94201.53;5026696;28;20052;-70
2024/02/04 08:57:25;;;;;;;2.22;1.73;;;;;;;7.76;49.13;94223.97;5030588;28;20043;-70
2024/02/04 08:59:50;;;;;;;0.85;0.85;;;;;;;7.82;49.40;94191.06;5029628;28;20049;-71
2024/02/04 09:02:16;;;;;;;2.30;1.20;;;;;;;7.71;49.76;94222.94;5025803;28;20383;-69
2024/02/04 09:04:41;;;;;;;2.28;1.00;;;;;;;7.54;50.08;94198.00;5009992;28;20445;-71
2024/02/04 09:07:07;;;;;;;2.60;2.10;;;;;;;7.65;50.04;94205.53;5030667;28;20576;-70
2024/02/04 09:09:33;;;;;;;2.72;2.00;;;;;;;7.68;50.09;94220.84;5031818;28;20049;-70
2024/02/04 09:11:58;;;;;;;3.80;2.80;;;;;;;7.61;50.06;94212.47;5031825;28;20033;-70
2024/02/04 09:14:24;;;;;;;6.00;2.33;;;;;;;7.51;50.27;94220.56;5029671;28;20053;-70
2024/02/04 09:16:49;;;;;;;2.60;1.50;;;;;;;7.51;50.85;94230.34;5031756;28;20029;-70
2024/02/04 09:19:15;;;;;;;3.95;1.60;;;;;;;7.63;50.42;94238.69;5030783;28;20805;-71
2024/02/04 09:21:40;;;;;;;2.08;1.88;;;;;;;7.52;51.11;94238.00;5028271;28;20045;-71
2024/02/04 09:24:06;;;;;;;2.70;1.80;;;;;;;7.47;51.32;94235.44;5029706;28;20505;-70
2024/02/04 09:26:31;;;;;;;2.17;1.50;;;;;;;7.51;51.14;94231.13;5031477;28;20096;-70
2024/02/04 09:28:57;;;;;;;1.40;1.30;;;;;;;7.59;50.92;94253.53;5031435;28;20033;-70
2024/02/04 09:31:22;;;;;;;4.15;1.40;;;;;;;7.50;51.36;94266.59;5029933;28;20036;-71
2024/02/04 09:33:47;;;;;;;4.80;1.63;;;;;;;7.46;51.15;94270.91;5025847;28;20052;-70
2024/02/04 09:36:13;;;;;;;2.67;1.85;;;;;;;7.57;50.91;94288.25;5029319;28;20041;-70
2024/02/04 09:38:40;;;;;;;2.38;1.85;;;;;;;7.66;50.67;94270.66;5029802;28;20999;-70
2024/02/04 09:41:05;;;;;;;4.35;2.30;;;;;;;7.60;51.20;94268.34;5030646;28;20406;-70
2024/02/04 09:43:36;;;;;;;3.97;2.25;;;;;;;7.71;50.65;94251.28;5031204;28;20029;-70
2024/02/04 09:46:02;;;;;;;2.08;1.60;;;;;;;7.63;51.14;94247.38;5030691;28;20040;-71
2024/02/04 09:48:32;;;;;;;3.70;1.65;;;;;;;7.82;50.50;94244.03;5028935;28;20195;-70
2024/02/04 09:50:58;;;;;;;2.03;1.50;;;;;;;7.82;50.59;94249.31;5027347;28;20040;-71
2024/02/04 09:53:35;;;;;;;2.80;2.17;;;;;;;7.90;50.37;94264.56;5030641;28;20045;-71
2024/02/04 09:56:03;;;;;;;3.50;2.15;;;;;;;7.88;50.54;94248.16;5030923;28;20056;-70
2024/02/04 09:58:28;;;;;;;3.40;2.00;;;;;;;7.80;50.71;94235.56;5027732;28;20036;-70
2024/02/04 10:00:54;;;;;;;5.15;2.90;;;;;;;7.85;50.58;94236.28;5012293;28;20045;-70
2024/02/04 10:03:20;;;;;;;3.45;2.33;;;;;;;7.98;50.23;94234.78;5019985;28;20033;-70
2024/02/04 10:05:46;;;;;;;3.47;2.10;;;;;;;7.93;50.57;94232.22;5029570;28;20045;-70
2024/02/04 10:08:13;;;;;;;3.88;2.30;;;;;;;7.99;50.27;94200.06;5033879;28;20048;-70
2024/02/04 10:10:38;;;;;;;3.75;2.53;;;;;;;8.12;50.64;94246.25;5030453;28;20116;-70
2024/02/04 10:13:08;;;;;;;3.03;2.25;;;;;;;8.21;50.25;94255.16;5032416;28;20048;-70
2024/02/04 10:15:34;;;;;;;3.25;2.30;;;;;;;8.04;49.99;94238.94;5034359;28;20044;-70
2024/02/04 10:18:05;;;;;;;2.53;2.22;;;;;;;8.33;49.96;94266.09;5032282;28;20053;-70
2024/02/04 10:20:34;;;;;;;5.50;2.38;;;;;;;8.27;50.04;94261.94;5030607;28;20608;-70
2024/02/04 10:23:00;;;;;;;4.95;2.13;;;;;;;8.15;50.41;94270.31;5031580;28;20109;-70
2024/02/04 10:25:26;;;;;;;5.68;2.00;;;;;;;8.28;50.48;94263.50;5034153;28;20505;-70
2024/02/04 10:27:53;;;;;;;2.35;2.03;;;;;;;8.37;50.26;94268.94;5031234;28;20154;-69
2024/02/04 10:30:22;;;;;;;3.35;2.28;;;;;;;8.38;50.46;94258.06;5030572;28;20142;-69
2024/02/04 10:32:50;;;;;;;5.57;2.70;;;;;;;8.44;50.10;94259.56;5025944;28;20045;-69
2024/02/04 10:35:18;;;;;;;5.78;2.45;;;;;;;8.48;50.23;94239.34;5033446;28;20037;-70
2024/02/04 10:37:45;;;;;;;2.33;2.10;;;;;;;8.40;50.66;94242.66;5032234;28;20056;-70
2024/02/04 10:40:10;;;;;;;3.85;2.63;;;;;;;8.49;50.88;94240.13;5030936;28;20620;-70
2024/02/04 10:42:38;;;;;;;4.03;2.20;;;;;;;8.49;50.48;94235.63;5034424;28;20040;-70
2024/02/04 10:45:08;;;;;;;3.60;2.03;;;;;;;8.50;50.89;94231.91;5023351;28;20064;-70
2024/02/04 10:47:37;;;;;;;4.97;2.13;;;;;;;8.41;50.76;94223.00;5012101;28;20038;-70
2024/02/04 10:50:04;;;;;;;6.43;2.97;;;;;;;8.67;50.69;94246.47;5012510;28;20832;-70
2024/02/04 10:52:35;;;;;;;4.57;1.95;;;;;;;8.53;50.92;94249.88;5035529;28;20064;-70
2024/02/04 10:55:03;;;;;;;2.28;1.60;;;;;;;8.47;50.70;94251.03;5027556;28;20043;-70
2024/02/04 10:57:30;;;;;;;7.53;3.40;;;;;;;8.55;50.35;94250.38;5033544;28;20573;-70
2024/02/04 10:59:57;;;;;;;4.10;3.20;;;;;;;8.45;50.89;94245.25;5030372;28;20037;-70
2024/02/04 11:02:23;;;;;;;3.25;2.28;;;;;;;8.52;50.71;94250.94;5028597;28;20045;-70
2024/02/04 11:04:49;;;;;;;2.97;2.10;;;;;;;8.43;50.73;94228.81;5012039;28;20033;-70
2024/02/04 11:07:17;;;;;;;2.67;2.00;;;;;;;8.35;51.06;94256.00;5031945;28;20050;-70
2024/02/04 11:09:48;;;;;;;3.25;2.20;;;;;;;8.45;51.33;94247.88;5030674;28;20041;-70
2024/02/04 11:12:17;;;;;;;4.25;2.65;;;;;;;8.39;50.91;94230.47;5031805;28;20102;-70
2024/02/04 11:14:47;;;;;;;6.13;4.13;;;;;;;8.52;50.54;94244.84;5033114;28;20045;-70
2024/02/04 11:17:24;;;;;;;4.18;2.63;;;;;;;8.44;50.70;94229.63;5033147;28;20112;-70
2024/02/04 11:20:27;;;;;;;6.43;3.75;;;;;;;8.37;51.09;94237.13;5033130;28;20505;-70
2024/02/04 11:23:12;;;;;;;4.88;2.80;;;;;;;8.33;51.18;94228.97;5031751;28;20020;-70
2024/02/04 11:25:42;;;;;;;5.97;2.93;;;;;;;8.44;50.83;94217.16;5027313;28;20079;-70
2024/02/04 11:28:08;;;;;;;4.57;2.72;;;;;;;8.46;51.15;94214.97;5027038;28;20601;-70
2024/02/04 11:30:35;;;;;;;5.82;3.17;;;;;;;8.54;50.59;94211.69;5030979;28;20044;-71
2024/02/04 11:33:03;;;;;;;5.30;3.47;;;;;;;8.38;50.94;94223.59;5028783;28;20904;-70
2024/02/04 11:35:28;;;;;;;4.53;2.65;;;;;;;8.41;51.08;94203.69;5028363;28;20577;-70
2024/02/04 11:37:54;;;;;;;3.42;2.17;;;;;;;8.36;51.22;94203.78;5030731;28;20562;-70